LSZB/BRN METAR and TAF weather

Enter ICAO airport designator
Station Type Date Time Source
LSZB METAR 2022/12/04 10:50 UTC NOAA

LSZB 041050Z VRB01KT 5000 OVC012 03/00 Q1011


Station Type Date Time Source
LSZB Decoded METAR 2022/12/04 10:50 UTC NOAA

Bern / Belp , Switzerland (LSZB) 46-55N 007-30E
Dec 04, 2022 - 05:50 AM EST / 2022.12.04 1050 UTC
Wind: Variable at 1 MPH (1 KT):0
Visibility: 3 mile(s):0
Sky conditions: overcast
Temperature: 37 F (3 C)
Dew Point: 32 F (0 C)
Relative Humidity: 80%
Pressure (altimeter): 29.85 in. Hg (1011 hPa)
ob: LSZB 041050Z VRB01KT 5000 OVC012 03/00 Q1011
cycle: 11

Station Type Date Time Source
LSZB TAF 2014/12/22 20:03 UTC NOAA

TAF
AMD TAF
AMD LSZB 222054Z 2220/2224 CNL

Example: see airport list